Akraberg, Faroe Islands

12:04 PM WEST on August 01, 2014 (GMT +0100)
Vagar (EKVG) Elev 279 ft | 62.07 °N, 7.28 °W | Change Station

Current weather conditions updated 14 minutes ago

Mostly Cloudy
Mostly Cloudy
52 °F
Feels Like 52 °F
N
10
Wind Variable Wind from North

Today is forecast to be nearly the same temperature as yesterday. A few showers developing late tonight.

Today
High -- | Low -- °F
--% Chance of Precip.
Yesterday
High -- | Low -- °F
Precip. -- in
4:57 AM 10:07 PM
Waxing Crescent, 25% visible
Pressure 29.80 in
Visibility 6.2 miles
Clouds Mostly Cloudy 3200 ft
Mostly Cloudy 5200 ft
Dew Point 43 °F
Humidity 71%
Rainfall 0.00 in
Snow Depth Not available.
UV 3 out of 12
Pollen Not available.
Air Quality Not available.
Flu Activity Not available.
METAR EKVG 011050Z AUTO 35009KT 9999NDV BKN032/// BKN052/// 11/06 Q1009 RMK SCT037/// WIND 850FT 02007KT 340V060

More Conditions Fewer Conditions

Pressure 29.80 in
Visibility 6.2 miles
Clouds Mostly Cloudy 3200 ft
Mostly Cloudy 5200 ft
Dew Point 43 °F
Humidity 71%
Rainfall 0.00 in
Snow Depth Not available.
UV 3 out of 12
Pollen Not available.
Air Quality Not available.
Flu Activity Not available.
METAR EKVG 011050Z AUTO 35009KT 9999NDV BKN032/// BKN052/// 11/06 Q1009 RMK SCT037/// WIND 850FT 02007KT 340V060

More Conditions Fewer Conditions

10-Day Weather Forecast

Almanac

Astronomy

Aug. 01, 2014 Rise Set
Actual Time 4:57 AM WEST 10:07 PM WEST
Civil Twilight 3:49 AM WEST 11:13 PM WEST
Nautical Twilight 2:05 AM WEST 1:00 AM WEST
Astronomical Twilight Sun does not rise Sun does not rise
Moon 11:55 AM WEST 10:50 PM WEST
Length of Visible Light 19h 23m
Length of Day
17h 10m
Tomorrow will be 5m 18s shorter.
Waxing Crescent, 25% of the Moon is Illuminated
Today
Waxing Crescent
Aug 3
First Quarter
Aug 10
Full
Aug 17
Last Quarter
Aug 25
New

Yesterday's Extremes

Country Highs Country Lows

Community

WunderPhotos

Upload Photos

1,739,536 photos uploaded!

Nearby

Snow Depth

Not available.

Earthquake Activity

City Distance Mag. Time & Date
No recent earthquake activity has been reported nearby.
Minimum magnitude displayed is 2.5.

Coastal Water Temperatures

Place Temperature
No Stations Reporting

Nearby Weather Stations

There are no personal weather stations in this area.